Lake Park, FL (33403)

4:30 AM EST on February 14, 2016 (GMT -0500)
Rybovich Boat Company | | Change Station
CLOSE
Current Station
Personal Weather Station
Location: West Palm Beach, FL
Elevation: 10 ft
Nearby Weather Stations

Elev 10 ft 26.75 °N, 80.05 °W | Updated 4 seconds ago

Clear
Clear
64.4 °F
Feels Like 64.4 °F
N
9.8
Wind Variable Wind from NNE
Gusts 17.0 mph

Today
High -- | Low -- °F
--% Chance of Precip.
Yesterday
High -- | Low -- °F
Precip. -- in
Pressure 30.19 in
Visibility 10.0 miles
Clouds Few 4000 ft
Dew Point 50 °F
Humidity 61%
Rainfall 0.00 in
Snow Depth Not available.
6:57 AM 6:11 PM
Waxing Crescent, 40% visible
METAR KPBI 140853Z 35005KT 10SM FEW040 15/08 A3019 RMK AO2 SLP221 T01500078 55013 $
Pressure 30.19 in
Visibility 10.0 miles
Clouds Few 4000 ft
Dew Point 50 °F
Humidity 61%
Rainfall 0.00 in
Snow Depth Not available.
6:57 AM 6:11 PM
Waxing Crescent, 40% visible
METAR KPBI 140853Z 35005KT 10SM FEW040 15/08 A3019 RMK AO2 SLP221 T01500078 55013 $

10-Day Weather Forecast

Almanac

Astronomy

Feb. 14, 2016 Rise Set
Actual Time
Civil Twilight
Nautical Twilight
Astronomical Twilight
Moon
Length of Visible Light
Length of Day
Tomorrow will be .
, % of the Moon is Illuminated

Today's Extremes

State Highs State Lows

Community

WunderPhotos

Upload Photos

1,892,761 photos uploaded!

WunderBlog® & News

Nearby

Air Quality

  Air Quality AQ Index Pollutant
Not available.

Snow Depth

Station Depth Elevation

Earthquake Activity

City Distance Mag. Time & Date
Minimum magnitude displayed is 2.5.

Coastal Water Temperatures

Place Temperature

Stations

Nearby Weather Stations

Station Location Temp. Windchill Dew Point Humidity Wind Precip. Elev Updated Type
                   

Watches & Warnings

There are currently no watches in effect.